createdAt,value
2022-11-14T00:01:27.560Z,4.03
2022-11-14T00:03:55.734Z,3.70
2022-11-14T00:06:23.865Z,4.03
2022-11-14T00:08:51.974Z,4.32
2022-11-14T00:11:21.529Z,4.03
2022-11-14T00:13:49.690Z,4.15
2022-11-14T00:16:17.883Z,4.03
2022-11-14T00:18:46.026Z,4.30
2022-11-14T00:21:14.159Z,4.72
2022-11-14T00:23:42.472Z,4.07
2022-11-14T00:26:10.758Z,4.13
2022-11-14T00:28:40.308Z,4.03
2022-11-14T00:31:09.072Z,4.07
2022-11-14T00:33:37.257Z,4.28
2022-11-14T00:36:05.923Z,4.13
2022-11-14T00:38:34.123Z,3.88
2022-11-14T00:41:02.230Z,4.47
2022-11-14T00:43:30.415Z,3.65
2022-11-14T00:45:59.984Z,4.40
2022-11-14T00:48:28.444Z,4.28
2022-11-14T00:50:56.825Z,4.20
2022-11-14T00:53:24.986Z,3.75
2022-11-14T00:55:53.189Z,4.35
2022-11-14T00:58:21.463Z,4.13
2022-11-14T01:00:49.754Z,4.22
2022-11-14T01:03:19.823Z,4.20
2022-11-14T01:05:51.519Z,3.83
2022-11-14T01:08:21.164Z,3.80
2022-11-14T01:10:51.580Z,3.80
2022-11-14T01:13:20.579Z,3.85
2022-11-14T01:15:50.696Z,4.28
2022-11-14T01:18:22.134Z,3.90
2022-11-14T01:20:50.545Z,3.88
2022-11-14T01:23:19.026Z,3.80
2022-11-14T01:25:47.308Z,4.05
2022-11-14T01:28:17.157Z,4.13
2022-11-14T01:30:45.306Z,4.20
2022-11-14T01:33:13.457Z,4.00
2022-11-14T01:35:42.997Z,4.00
2022-11-14T01:38:14.815Z,4.07
2022-11-14T01:40:44.261Z,4.00
2022-11-14T01:43:33.269Z,4.05
2022-11-14T01:46:04.759Z,3.97
2022-11-14T01:48:40.984Z,4.10
2022-11-14T01:51:24.234Z,4.43
2022-11-14T01:53:54.642Z,3.65
2022-11-14T01:56:26.470Z,4.00
2022-11-14T01:58:58.577Z,4.00
2022-11-14T02:01:26.975Z,4.40
2022-11-14T02:03:57.072Z,3.83
2022-11-14T02:06:31.004Z,4.00
2022-11-14T02:09:01.628Z,3.80
2022-11-14T02:11:32.539Z,3.90
2022-11-14T02:14:00.993Z,4.18
2022-11-14T02:16:29.815Z,4.25
2022-11-14T02:18:57.933Z,4.20
2022-11-14T02:21:27.582Z,4.70
2022-11-14T02:23:55.708Z,3.92
2022-11-14T02:26:24.565Z,3.97
2022-11-14T02:28:52.724Z,4.20
2022-11-14T02:31:20.971Z,4.43
2022-11-14T02:33:49.161Z,4.35
2022-11-14T02:36:17.368Z,3.78
2022-11-14T02:38:46.993Z,4.10
2022-11-14T02:41:15.128Z,3.67
2022-11-14T02:43:43.293Z,4.28
2022-11-14T02:46:11.739Z,4.03
2022-11-14T02:48:39.807Z,3.85
2022-11-14T02:51:07.983Z,4.20
2022-11-14T02:53:36.042Z,3.90
2022-11-14T02:56:06.161Z,3.85
2022-11-14T02:58:34.359Z,4.33
2022-11-14T03:03:50.649Z,4.40
2022-11-14T03:06:18.716Z,3.80
2022-11-14T03:08:46.892Z,3.85
2022-11-14T03:11:16.663Z,4.13
2022-11-14T03:13:44.878Z,4.20
2022-11-14T03:16:14.173Z,4.55
2022-11-14T03:18:42.696Z,4.28
2022-11-14T03:21:12.765Z,3.92
2022-11-14T03:23:40.970Z,4.10
2022-11-14T03:26:11.599Z,4.18
2022-11-14T03:28:41.865Z,4.50
2022-11-14T03:31:12.136Z,3.93
2022-11-14T03:33:40.513Z,4.10
2022-11-14T03:36:09.264Z,4.10
2022-11-14T03:38:37.531Z,4.30
2022-11-14T03:41:05.970Z,4.40
2022-11-14T03:43:35.773Z,4.22
2022-11-14T03:46:06.010Z,4.00
2022-11-14T03:48:34.176Z,4.30
2022-11-14T03:51:02.326Z,4.18
2022-11-14T03:53:30.428Z,4.10
2022-11-14T03:55:58.550Z,4.28
2022-11-14T03:58:27.022Z,3.80
2022-11-14T04:00:56.558Z,4.30
2022-11-14T04:03:26.202Z,4.35
2022-11-14T04:05:54.463Z,3.72
2022-11-14T04:08:22.757Z,3.88
2022-11-14T04:10:51.053Z,4.35
2022-11-14T04:13:19.181Z,4.15
2022-11-14T04:15:47.369Z,4.13
2022-11-14T04:18:15.520Z,4.03
2022-11-14T04:20:45.023Z,3.70
2022-11-14T04:23:13.205Z,4.00
2022-11-14T04:25:41.392Z,3.97
2022-11-14T04:28:09.532Z,4.22
2022-11-14T04:30:37.886Z,3.63
2022-11-14T04:33:06.140Z,4.10
2022-11-14T04:35:34.306Z,4.10
2022-11-14T04:38:04.327Z,4.18
2022-11-14T04:40:32.457Z,4.05
2022-11-14T04:43:00.644Z,4.18
2022-11-14T04:45:29.235Z,4.07
2022-11-14T04:47:57.461Z,3.90
2022-11-14T04:50:25.623Z,4.07
2022-11-14T04:52:54.562Z,3.65
2022-11-14T04:55:24.245Z,4.03
2022-11-14T04:57:56.065Z,4.25
2022-11-14T05:00:24.680Z,4.00
2022-11-14T05:02:52.897Z,3.92
2022-11-14T05:05:20.996Z,4.10
2022-11-14T05:07:49.252Z,4.38
2022-11-14T05:10:17.440Z,3.83
2022-11-14T05:12:47.073Z,4.43
2022-11-14T05:15:15.353Z,4.30
2022-11-14T05:17:43.474Z,4.03
2022-11-14T05:20:12.567Z,4.25
2022-11-14T05:22:40.801Z,4.18
2022-11-14T05:25:10.435Z,4.00
2022-11-14T05:27:38.768Z,4.10
2022-11-14T05:30:09.669Z,4.05
2022-11-14T05:32:37.892Z,4.10
2022-11-14T05:35:07.044Z,3.80
2022-11-14T05:37:35.802Z,3.90
2022-11-14T05:40:04.236Z,4.30
2022-11-14T05:42:32.492Z,4.03
2022-11-14T05:45:00.958Z,4.18
2022-11-14T05:47:30.451Z,4.03
2022-11-14T05:49:58.682Z,4.10
2022-11-14T05:52:26.768Z,3.90
2022-11-14T05:54:54.898Z,4.13
2022-11-14T05:57:23.035Z,4.20
2022-11-14T05:59:51.216Z,3.97
2022-11-14T06:02:19.537Z,4.30
2022-11-14T06:04:49.087Z,4.05
2022-11-14T06:07:20.129Z,4.53
2022-11-14T06:09:48.709Z,4.07
2022-11-14T06:12:16.940Z,4.82
2022-11-14T06:14:45.108Z,4.72
2022-11-14T06:17:13.325Z,5.15
2022-11-14T06:19:41.541Z,5.60
2022-11-14T06:22:11.137Z,5.75
2022-11-14T06:24:39.270Z,5.80
2022-11-14T06:27:07.435Z,5.63
2022-11-14T06:29:35.850Z,5.72
2022-11-14T06:32:04.116Z,6.00
2022-11-14T06:34:32.345Z,7.07
2022-11-14T06:37:00.497Z,6.70
2022-11-14T06:39:30.012Z,7.75
2022-11-14T06:41:58.444Z,7.40
2022-11-14T06:44:30.764Z,6.63
2022-11-14T06:46:59.362Z,6.80
2022-11-14T06:49:27.977Z,8.02
2022-11-14T06:51:56.337Z,7.55
2022-11-14T06:54:24.492Z,8.18
2022-11-14T06:56:54.045Z,7.88
2022-11-14T06:59:22.260Z,7.47
2022-11-14T07:01:50.425Z,8.30
2022-11-14T07:04:18.778Z,7.93
2022-11-14T07:06:47.077Z,9.00
2022-11-14T07:09:15.529Z,9.10
2022-11-14T07:11:46.085Z,9.27
2022-11-14T07:14:15.698Z,8.75
2022-11-14T07:16:43.909Z,9.82
2022-11-14T07:19:12.576Z,9.43
2022-11-14T07:21:40.891Z,9.98
2022-11-14T07:24:09.284Z,10.23
2022-11-14T07:26:37.446Z,10.13
2022-11-14T07:29:05.673Z,10.75
2022-11-14T07:31:35.234Z,10.65
2022-11-14T07:34:03.439Z,11.10
2022-11-14T07:36:31.582Z,10.63
2022-11-14T07:38:59.648Z,10.75
2022-11-14T07:41:27.819Z,11.48
2022-11-14T07:43:56.032Z,10.75
2022-11-14T07:46:24.268Z,11.55
2022-11-14T07:48:54.116Z,11.07
2022-11-14T07:51:22.424Z,11.18
2022-11-14T07:53:52.659Z,10.73
2022-11-14T07:56:22.229Z,11.43
2022-11-14T07:58:50.363Z,11.18
2022-11-14T08:01:18.604Z,11.57
2022-11-14T08:03:46.897Z,11.75
2022-11-14T08:06:17.870Z,12.45
2022-11-14T08:11:23.059Z,11.48
2022-11-14T08:14:03.668Z,10.63
2022-11-14T08:16:31.824Z,10.63
2022-11-14T08:18:59.997Z,11.10
2022-11-14T08:21:29.496Z,10.90
2022-11-14T08:23:57.672Z,11.25
2022-11-14T08:26:28.973Z,11.63
2022-11-14T08:29:01.112Z,11.43
2022-11-14T08:31:29.405Z,12.07
2022-11-14T08:33:57.598Z,11.73
2022-11-14T08:36:25.830Z,11.52
2022-11-14T08:39:01.617Z,11.27
2022-11-14T08:41:30.250Z,11.95
2022-11-14T08:43:58.448Z,10.50
2022-11-14T08:46:26.646Z,11.65
2022-11-14T08:48:54.773Z,11.57
2022-11-14T08:51:22.895Z,10.52
2022-11-14T08:53:52.371Z,10.90
2022-11-14T08:56:21.912Z,10.75
2022-11-14T08:58:50.161Z,10.55
2022-11-14T09:01:18.304Z,11.65
2022-11-14T09:03:46.471Z,11.15
2022-11-14T09:06:14.777Z,11.27
2022-11-14T09:08:42.938Z,11.10
2022-11-14T09:11:13.255Z,10.60
2022-11-14T09:13:43.788Z,10.80
2022-11-14T09:16:11.907Z,11.05
2022-11-14T09:18:40.760Z,9.95
2022-11-14T09:21:09.930Z,11.00
2022-11-14T09:23:38.247Z,10.93
2022-11-14T09:26:07.180Z,10.45
2022-11-14T09:28:35.557Z,10.85
2022-11-14T09:31:06.756Z,11.05
2022-11-14T09:33:35.350Z,10.70
2022-11-14T09:36:06.061Z,10.80
2022-11-14T09:38:38.518Z,11.15
2022-11-14T09:41:23.817Z,10.90
2022-11-14T09:44:23.133Z,11.57
2022-11-14T09:46:55.966Z,11.38
2022-11-14T09:49:33.113Z,10.40
2022-11-14T09:52:10.791Z,10.10
2022-11-14T09:54:45.589Z,10.57
2022-11-14T09:57:19.129Z,10.65
2022-11-14T09:59:48.001Z,10.55
2022-11-14T10:02:32.473Z,10.45
2022-11-14T10:05:15.693Z,9.68
2022-11-14T10:08:06.429Z,10.77
2022-11-14T10:10:49.372Z,10.55
2022-11-14T10:13:42.329Z,10.30
2022-11-14T10:16:19.615Z,9.90
2022-11-14T10:19:11.058Z,9.85
2022-11-14T10:21:55.544Z,10.40
2022-11-14T10:24:48.790Z,9.50
2022-11-14T10:27:20.792Z,10.18
2022-11-14T10:30:04.654Z,10.27
2022-11-14T10:32:56.127Z,8.95
2022-11-14T10:35:35.076Z,10.02
2022-11-14T10:38:12.860Z,9.57
2022-11-14T10:40:44.149Z,9.32
2022-11-14T10:43:23.826Z,10.20
2022-11-14T10:45:57.598Z,10.43
2022-11-14T10:48:32.270Z,9.70
2022-11-14T10:51:08.327Z,8.98
2022-11-14T10:53:49.911Z,9.52
2022-11-14T10:56:18.386Z,10.35
2022-11-14T10:58:49.732Z,9.68
2022-11-14T11:01:34.426Z,9.25
2022-11-14T11:04:14.973Z,9.32
2022-11-14T11:06:44.683Z,9.68
2022-11-14T11:09:33.766Z,9.45
2022-11-14T11:12:03.740Z,10.10
2022-11-14T11:14:32.768Z,9.70
2022-11-14T11:17:29.483Z,9.25
2022-11-14T11:20:37.439Z,10.05
2022-11-14T11:23:08.488Z,9.43
2022-11-14T11:28:07.452Z,9.30
2022-11-14T11:30:35.681Z,10.23
2022-11-14T11:33:25.093Z,9.73
2022-11-14T11:35:59.038Z,10.38
2022-11-14T11:38:31.007Z,9.23
2022-11-14T11:41:15.527Z,9.20
2022-11-14T11:43:57.528Z,9.70
2022-11-14T11:46:33.561Z,9.88
2022-11-14T11:49:08.646Z,10.38
2022-11-14T11:51:41.476Z,9.98
2022-11-14T11:54:16.440Z,10.05
2022-11-14T11:56:45.645Z,10.55
2022-11-14T11:59:28.191Z,10.23
2022-11-14T12:01:56.536Z,9.02
2022-11-14T12:04:25.684Z,9.45
2022-11-14T12:07:00.187Z,10.38
2022-11-14T12:10:08.805Z,9.48
2022-11-14T12:12:40.196Z,9.77
2022-11-14T12:15:19.378Z,9.07
2022-11-14T12:18:09.446Z,9.93
2022-11-14T12:21:05.699Z,10.18
2022-11-14T12:24:06.443Z,10.02
2022-11-14T12:27:01.479Z,10.05
2022-11-14T12:29:47.288Z,9.45
2022-11-14T12:32:20.399Z,9.68
2022-11-14T12:34:50.344Z,10.20
2022-11-14T12:37:23.108Z,9.55
2022-11-14T12:40:00.346Z,9.63
2022-11-14T12:42:30.175Z,9.35
2022-11-14T12:44:58.420Z,9.48
2022-11-14T12:47:27.487Z,9.60
2022-11-14T12:50:29.094Z,9.63
2022-11-14T12:52:57.519Z,10.02
2022-11-14T12:55:57.764Z,10.00
2022-11-14T12:58:44.561Z,9.52
2022-11-14T13:01:29.320Z,9.52
2022-11-14T13:04:17.517Z,9.77
2022-11-14T13:06:55.984Z,10.13
2022-11-14T13:09:33.954Z,9.88
2022-11-14T13:12:38.527Z,10.38
2022-11-14T13:15:47.408Z,9.57
2022-11-14T13:18:39.961Z,9.65
2022-11-14T13:24:02.950Z,9.93
2022-11-14T13:26:41.918Z,9.50
2022-11-14T13:29:31.958Z,10.60
2022-11-14T13:32:01.596Z,10.05
2022-11-14T13:34:42.795Z,10.45
2022-11-14T13:37:25.134Z,9.63
2022-11-14T13:40:00.934Z,9.65
2022-11-14T13:42:50.684Z,9.35
2022-11-14T13:45:50.074Z,9.88
2022-11-14T13:48:37.996Z,10.00
2022-11-14T13:51:29.023Z,10.55
2022-11-14T13:56:33.292Z,10.02
2022-11-14T13:59:41.281Z,9.35
2022-11-14T14:02:36.894Z,10.18
2022-11-14T14:05:17.341Z,9.63
2022-11-14T14:07:59.336Z,9.98
2022-11-14T14:10:33.552Z,10.07
2022-11-14T14:13:13.872Z,9.30
2022-11-14T14:15:50.277Z,9.53
2022-11-14T14:18:33.251Z,9.95
2022-11-14T14:21:11.266Z,9.63
2022-11-14T14:23:49.276Z,9.68
2022-11-14T14:26:25.792Z,8.85
2022-11-14T14:29:10.654Z,9.45
2022-11-14T14:31:40.482Z,9.95
2022-11-14T14:34:23.575Z,9.68
2022-11-14T14:36:54.247Z,9.73
2022-11-14T14:39:25.263Z,10.30
2022-11-14T14:44:26.536Z,9.40
2022-11-14T14:46:55.326Z,10.10
2022-11-14T14:49:27.024Z,9.90
2022-11-14T14:51:58.778Z,9.68
2022-11-14T14:54:29.397Z,9.57
2022-11-14T14:57:00.170Z,10.20
2022-11-14T14:59:30.300Z,9.80
2022-11-14T15:01:59.252Z,9.80
2022-11-14T15:04:29.900Z,9.82
2022-11-14T15:06:59.674Z,9.25
2022-11-14T15:09:29.944Z,10.45
2022-11-14T15:12:00.624Z,9.97
2022-11-14T15:14:31.728Z,9.70
2022-11-14T15:19:35.785Z,9.80
2022-11-14T15:22:07.048Z,9.27
2022-11-14T15:24:35.289Z,9.38
2022-11-14T15:27:06.824Z,9.90
2022-11-14T15:29:35.046Z,9.07
2022-11-14T15:32:05.544Z,9.25
2022-11-14T15:34:35.104Z,9.32
2022-11-14T15:37:24.540Z,9.02
2022-11-14T15:39:52.731Z,9.13
2022-11-14T15:42:28.262Z,8.32
2022-11-14T15:44:57.351Z,8.85
2022-11-14T15:47:27.332Z,8.57
2022-11-14T15:50:02.561Z,8.68
2022-11-14T15:52:36.354Z,8.73
2022-11-14T15:55:10.621Z,8.60
2022-11-14T15:57:39.349Z,9.05
2022-11-14T16:00:08.838Z,9.27
2022-11-14T16:02:46.376Z,8.25
2022-11-14T16:05:15.770Z,8.75
2022-11-14T16:07:45.523Z,8.80
2022-11-14T16:10:16.514Z,8.90
2022-11-14T16:15:21.771Z,9.05
2022-11-14T16:17:51.476Z,8.27
2022-11-14T16:20:21.777Z,8.45
2022-11-14T16:22:53.143Z,8.70
2022-11-14T16:25:23.934Z,8.63
2022-11-14T16:27:52.309Z,9.15
2022-11-14T16:30:23.007Z,8.27
2022-11-14T16:32:54.232Z,9.15
2022-11-14T16:35:24.313Z,8.75
2022-11-14T16:37:56.373Z,9.67
2022-11-14T16:40:27.792Z,8.30
2022-11-14T16:42:57.166Z,8.73
2022-11-14T16:45:26.522Z,8.88
2022-11-14T16:47:54.903Z,8.38
2022-11-14T16:50:23.292Z,8.57
2022-11-14T16:52:51.491Z,8.63
2022-11-14T16:55:21.174Z,8.88
2022-11-14T16:57:49.416Z,8.80
2022-11-14T17:00:18.486Z,9.02
2022-11-14T17:02:47.519Z,9.75
2022-11-14T17:05:15.918Z,9.82
2022-11-14T17:07:44.183Z,9.90
2022-11-14T17:10:12.356Z,9.02
2022-11-14T17:12:41.958Z,10.43
2022-11-14T17:15:10.666Z,11.15
2022-11-14T17:17:38.892Z,11.25
2022-11-14T17:20:08.580Z,11.52
2022-11-14T17:22:36.933Z,10.20
2022-11-14T17:25:05.618Z,10.43
2022-11-14T17:27:33.889Z,10.93
2022-11-14T17:30:03.560Z,10.02
2022-11-14T17:32:31.812Z,9.45
2022-11-14T17:34:59.913Z,10.43
2022-11-14T17:37:28.069Z,10.32
2022-11-14T17:39:56.310Z,9.85
2022-11-14T17:42:24.455Z,10.25
2022-11-14T17:44:53.072Z,10.55
2022-11-14T17:47:22.651Z,10.05
2022-11-14T17:49:50.852Z,10.63
2022-11-14T17:52:19.115Z,10.50
2022-11-14T17:54:47.305Z,10.05
2022-11-14T17:57:15.532Z,9.68
2022-11-14T17:59:45.394Z,10.00
2022-11-14T18:02:17.551Z,10.10
2022-11-14T18:04:48.017Z,9.77
2022-11-14T18:07:16.819Z,9.43
2022-11-14T18:09:45.591Z,10.15
2022-11-14T18:12:13.843Z,9.13
2022-11-14T18:14:42.092Z,9.77
2022-11-14T18:17:13.218Z,9.73
2022-11-14T18:19:41.772Z,10.02
2022-11-14T18:22:11.360Z,10.40
2022-11-14T18:24:43.338Z,9.82
2022-11-14T18:27:11.454Z,10.07
2022-11-14T18:29:39.593Z,9.65
2022-11-14T18:32:07.823Z,10.52
2022-11-14T18:34:36.909Z,9.35
2022-11-14T18:37:05.439Z,10.05
2022-11-14T18:39:35.134Z,10.35
2022-11-14T18:42:03.344Z,9.85
2022-11-14T18:44:31.766Z,9.98
2022-11-14T18:46:59.890Z,9.68
2022-11-14T18:49:28.603Z,10.00
2022-11-14T18:51:57.265Z,9.38
2022-11-14T18:54:25.401Z,10.10
2022-11-14T18:56:55.041Z,10.77
2022-11-14T18:59:23.231Z,10.35
2022-11-14T19:01:51.866Z,11.15
2022-11-14T19:04:20.204Z,10.18
2022-11-14T19:06:48.393Z,10.27
2022-11-14T19:09:22.181Z,10.35
2022-11-14T19:12:07.571Z,10.60
2022-11-14T19:14:37.603Z,10.70
2022-11-14T19:17:06.973Z,9.85
2022-11-14T19:19:35.173Z,10.32
2022-11-14T19:22:04.151Z,11.20
2022-11-14T19:24:32.435Z,10.77
2022-11-14T19:27:00.592Z,11.20
2022-11-14T19:29:28.731Z,11.02
2022-11-14T19:31:58.221Z,10.90
2022-11-14T19:34:26.322Z,10.98
2022-11-14T19:37:01.978Z,10.38
2022-11-14T19:39:30.616Z,10.73
2022-11-14T19:41:58.877Z,10.63
2022-11-14T19:44:27.008Z,11.07
2022-11-14T19:46:55.177Z,10.73
2022-11-14T19:49:24.743Z,10.85
2022-11-14T19:51:52.886Z,11.10
2022-11-14T19:54:21.040Z,10.70
2022-11-14T19:56:49.365Z,10.43
2022-11-14T19:59:22.953Z,11.13
2022-11-14T20:01:55.541Z,11.18
2022-11-14T20:04:25.437Z,10.38
2022-11-14T20:06:53.718Z,10.75
2022-11-14T20:09:21.870Z,10.48
2022-11-14T20:11:49.986Z,10.90
2022-11-14T20:14:18.416Z,10.90
2022-11-14T20:16:46.983Z,10.48
2022-11-14T20:19:16.165Z,10.30
2022-11-14T20:21:45.756Z,11.25
2022-11-14T20:24:17.696Z,10.32
2022-11-14T20:26:46.367Z,10.63
2022-11-14T20:29:14.522Z,10.65
2022-11-14T20:31:42.726Z,10.95
2022-11-14T20:34:12.355Z,10.55
2022-11-14T20:37:09.366Z,10.30
2022-11-14T20:39:30.999Z,10.70
2022-11-14T20:41:59.306Z,10.32
2022-11-14T20:44:27.452Z,10.85
2022-11-14T20:46:57.039Z,10.95
2022-11-14T20:49:25.322Z,10.98
2022-11-14T20:51:53.559Z,10.38
2022-11-14T20:54:21.779Z,10.20
2022-11-14T20:56:51.431Z,9.77
2022-11-14T20:59:19.670Z,9.65
2022-11-14T21:01:48.164Z,10.55
2022-11-14T21:04:16.436Z,10.10
2022-11-14T21:06:44.716Z,10.07
2022-11-14T21:09:12.954Z,10.07
2022-11-14T21:11:41.264Z,10.45
2022-11-14T21:14:12.089Z,9.98
2022-11-14T21:16:41.269Z,10.10
2022-11-14T21:19:09.458Z,9.95
2022-11-14T21:21:39.473Z,9.90
2022-11-14T21:24:08.635Z,10.38
2022-11-14T21:26:39.600Z,10.18
2022-11-14T21:31:40.429Z,10.05
2022-11-14T21:34:11.686Z,9.85
2022-11-14T21:36:45.364Z,9.85
2022-11-14T21:39:15.462Z,11.15
2022-11-14T21:41:44.817Z,9.95
2022-11-14T21:44:16.553Z,10.40
2022-11-14T21:46:48.683Z,10.30
2022-11-14T21:49:17.220Z,10.60
2022-11-14T21:51:45.466Z,10.63
2022-11-14T21:54:13.665Z,10.10
2022-11-14T21:56:41.812Z,10.45
2022-11-14T21:59:18.350Z,10.63
2022-11-14T22:02:06.896Z,10.02
2022-11-14T22:04:35.544Z,9.68
2022-11-14T22:07:05.161Z,9.13
2022-11-14T22:09:33.972Z,10.38
2022-11-14T22:12:02.720Z,10.23
2022-11-14T22:14:30.986Z,9.25
2022-11-14T22:17:00.456Z,9.88
2022-11-14T22:19:28.726Z,10.52
2022-11-14T22:21:56.816Z,9.35
2022-11-14T22:24:24.961Z,9.98
2022-11-14T22:26:53.091Z,9.33
2022-11-14T22:29:21.273Z,9.73
2022-11-14T22:31:52.810Z,10.43
2022-11-14T22:34:22.439Z,9.50
2022-11-14T22:36:50.598Z,9.73
2022-11-14T22:39:18.773Z,10.57
2022-11-14T22:41:46.989Z,9.90
2022-11-14T22:44:15.165Z,9.68
2022-11-14T22:46:43.340Z,10.05
2022-11-14T22:49:11.464Z,9.15
2022-11-14T22:51:40.974Z,9.05
2022-11-14T22:54:09.296Z,9.88
2022-11-14T22:56:37.375Z,9.52
2022-11-14T22:59:05.587Z,10.02
2022-11-14T23:01:34.157Z,9.23
2022-11-14T23:04:03.759Z,9.45
2022-11-14T23:06:34.148Z,9.50
2022-11-14T23:09:04.533Z,9.05
2022-11-14T23:11:33.868Z,10.10
2022-11-14T23:14:02.534Z,9.80
2022-11-14T23:16:32.789Z,9.07
2022-11-14T23:19:03.312Z,10.17
2022-11-14T23:21:33.389Z,9.15
2022-11-14T23:24:04.799Z,9.53
2022-11-14T23:26:33.753Z,9.32
2022-11-14T23:29:02.193Z,8.27
2022-11-14T23:31:30.446Z,9.25
2022-11-14T23:33:59.265Z,9.95
2022-11-14T23:36:27.466Z,9.27
2022-11-14T23:38:55.934Z,8.85
2022-11-14T23:41:26.690Z,8.85
2022-11-14T23:43:54.878Z,9.02
2022-11-14T23:46:23.051Z,9.50
2022-11-14T23:48:53.348Z,8.63
2022-11-14T23:51:21.580Z,9.73
2022-11-14T23:53:49.689Z,9.23
2022-11-14T23:56:17.822Z,8.90
2022-11-14T23:58:47.470Z,8.85
